Time;durP1;ratioP1;P1;durP2;ratioP2;P2;SDS_P1;SDS_P2;PMS_P1;PMS_P2;Temp;Humidity;BMP_temperature;BMP_pressure;BME280_temperature;BME280_humidity;BME280_pressure;Samples;Min_cycle;Max_cycle;Signal;HPM_P1;HPM_P2
2023/08/10 00:02:17;;;;;;;11.93;2.95;;;;;;;;;;5060327;28;20064;-84
2023/08/10 00:04:43;;;;;;;9.68;2.25;;;;;;;;;;5053151;28;20038;-84
2023/08/10 00:07:09;;;;;;;7.00;2.20;;;;;;;;;;5070629;28;20069;-81
2023/08/10 00:09:35;;;;;;;9.05;2.00;;;;;;;;;;5061089;28;20048;-84
2023/08/10 00:12:01;;;;;;;7.70;2.13;;;;;;;;;;5050787;28;20124;-84
2023/08/10 00:14:27;;;;;;;8.23;2.10;;;;;;;;;;5054226;28;20156;-84
2023/08/10 00:16:53;;;;;;;6.65;2.17;;;;;;;;;;5054282;28;20392;-83
2023/08/10 00:19:19;;;;;;;9.75;2.20;;;;;;;;;;5037514;28;20046;-83
2023/08/10 00:21:45;;;;;;;9.68;2.28;;;;;;;;;;5034517;28;20046;-83
2023/08/10 00:24:12;;;;;;;9.00;2.13;;;;;;;;;;5048969;28;20048;-84
2023/08/10 00:26:38;;;;;;;8.13;2.13;;;;;;;;;;5052412;28;20084;-83
2023/08/10 00:29:04;;;;;;;9.40;2.40;;;;;;;;;;5053681;28;20067;-83
2023/08/10 00:31:30;;;;;;;8.50;2.15;;;;;;;;;;5045379;28;20041;-83
2023/08/10 00:33:56;;;;;;;7.30;2.33;;;;;;;;;;5051984;28;20041;-83
2023/08/10 00:36:22;;;;;;;7.93;2.28;;;;;;;;;;5051547;28;20049;-84
2023/08/10 00:38:49;;;;;;;6.25;2.17;;;;;;;;;;5053557;28;20046;-85
2023/08/10 00:41:15;;;;;;;6.60;2.47;;;;;;;;;;5051630;28;20489;-82
2023/08/10 00:43:42;;;;;;;10.80;2.60;;;;;;;;;;5048604;28;20120;-83
2023/08/10 00:46:10;;;;;;;8.63;1.88;;;;;;;;;;5052131;28;20045;-82
2023/08/10 00:48:36;;;;;;;9.48;2.05;;;;;;;;;;5051922;28;20049;-82
2023/08/10 00:51:03;;;;;;;8.90;2.45;;;;;;;;;;5050942;28;20099;-84
2023/08/10 00:53:30;;;;;;;8.23;2.30;;;;;;;;;;5051121;28;20038;-84
2023/08/10 00:55:57;;;;;;;9.38;2.13;;;;;;;;;;5049924;28;20044;-83
2023/08/10 00:58:24;;;;;;;8.40;2.17;;;;;;;;;;5049219;28;20060;-83
2023/08/10 01:00:50;;;;;;;7.72;2.30;;;;;;;;;;5045279;28;20123;-82
2023/08/10 01:03:16;;;;;;;9.07;2.17;;;;;;;;;;5047992;28;20106;-84
2023/08/10 01:05:58;;;;;;;6.72;2.13;;;;;;;;;;5049617;28;20389;-83
2023/08/10 01:08:42;;;;;;;7.20;2.22;;;;;;;;;;5051119;28;20491;-83
2023/08/10 01:11:08;;;;;;;;;;;;;;;;;;5049792;28;20045;-85
2023/08/10 01:13:38;;;;;;;6.35;1.90;;;;;;;;;;5050159;28;19944;-84
2023/08/10 01:16:08;;;;;;;7.88;2.20;;;;;;;;;;5052677;28;20053;-83
2023/08/10 01:18:35;;;;;;;7.93;2.20;;;;;;;;;;5050918;28;20514;-83
2023/08/10 01:21:03;;;;;;;8.93;2.30;;;;;;;;;;5049798;28;20056;-83
2023/08/10 01:23:35;;;;;;;8.32;2.50;;;;;;;;;;5048362;28;20051;-83
2023/08/10 01:26:01;;;;;;;6.63;2.50;;;;;;;;;;5049092;28;20104;-83
2023/08/10 01:28:27;;;;;;;8.18;2.40;;;;;;;;;;5049384;28;20080;-83
2023/08/10 01:30:54;;;;;;;7.43;2.30;;;;;;;;;;5050494;28;20045;-83
2023/08/10 01:33:20;;;;;;;11.63;2.60;;;;;;;;;;5047846;28;20045;-84
2023/08/10 01:35:46;;;;;;;9.30;2.90;;;;;;;;;;5050780;28;20049;-83
2023/08/10 01:38:12;;;;;;;11.18;2.35;;;;;;;;;;5051141;28;20118;-83
2023/08/10 01:40:39;;;;;;;7.53;2.35;;;;;;;;;;5051797;28;20050;-83
2023/08/10 01:43:05;;;;;;;11.27;2.60;;;;;;;;;;5050759;28;20053;-84
2023/08/10 01:45:31;;;;;;;7.50;2.28;;;;;;;;;;5046430;28;20127;-84
2023/08/10 01:47:57;;;;;;;7.50;2.30;;;;;;;;;;5050689;28;20099;-83
2023/08/10 01:50:25;;;;;;;8.40;2.42;;;;;;;;;;5048241;28;20041;-84
2023/08/10 01:52:55;;;;;;;11.00;2.30;;;;;;;;;;5050046;28;20064;-84
2023/08/10 01:55:21;;;;;;;8.77;2.60;;;;;;;;;;5046234;28;20054;-86
2023/08/10 01:57:47;;;;;;;7.30;2.40;;;;;;;;;;5049584;28;20073;-84
2023/08/10 02:00:13;;;;;;;10.95;2.83;;;;;;;;;;5049397;28;20046;-83
2023/08/10 02:02:40;;;;;;;9.88;2.55;;;;;;;;;;5051457;28;20049;-84
2023/08/10 02:05:06;;;;;;;8.88;2.50;;;;;;;;;;5051388;28;20045;-87
2023/08/10 02:07:32;;;;;;;10.32;2.78;;;;;;;;;;5048440;28;20048;-85
2023/08/10 02:09:59;;;;;;;11.82;2.92;;;;;;;;;;5049693;28;20045;-84
2023/08/10 02:12:25;;;;;;;10.98;2.60;;;;;;;;;;5048407;28;20045;-85
2023/08/10 02:14:51;;;;;;;10.40;2.83;;;;;;;;;;5047427;28;20056;-83
2023/08/10 02:17:17;;;;;;;8.98;2.63;;;;;;;;;;5049561;28;20037;-84
2023/08/10 02:19:44;;;;;;;8.93;2.65;;;;;;;;;;5051370;28;20060;-84
2023/08/10 02:22:10;;;;;;;7.30;2.50;;;;;;;;;;5051922;28;20038;-83
2023/08/10 02:24:36;;;;;;;9.45;2.70;;;;;;;;;;5051265;28;20056;-83
2023/08/10 02:27:02;;;;;;;9.18;2.53;;;;;;;;;;5049644;28;20043;-84
2023/08/10 02:29:28;;;;;;;7.88;2.50;;;;;;;;;;5050281;28;20045;-84
2023/08/10 02:31:54;;;;;;;9.55;2.17;;;;;;;;;;5051248;28;20083;-85
2023/08/10 02:34:20;;;;;;;11.65;2.22;;;;;;;;;;5051594;28;20515;-83
2023/08/10 02:36:47;;;;;;;7.85;2.45;;;;;;;;;;5049222;28;20049;-83
2023/08/10 02:39:13;;;;;;;8.98;2.65;;;;;;;;;;5051542;28;20101;-83
2023/08/10 02:41:39;;;;;;;7.88;2.40;;;;;;;;;;5049339;28;20041;-84
2023/08/10 02:44:05;;;;;;;9.13;2.67;;;;;;;;;;5047067;28;20037;-84
2023/08/10 02:46:32;;;;;;;8.05;2.40;;;;;;;;;;5048318;28;20076;-85
2023/08/10 02:48:58;;;;;;;7.82;2.35;;;;;;;;;;5050473;28;20057;-83
2023/08/10 02:51:24;;;;;;;7.70;2.10;;;;;;;;;;5050632;28;20483;-83
2023/08/10 02:53:51;;;;;;;6.85;2.35;;;;;;;;;;5050528;28;20052;-84
2023/08/10 02:56:17;;;;;;;10.50;2.25;;;;;;;;;;5049617;28;20411;-84
2023/08/10 02:58:44;;;;;;;10.93;2.67;;;;;;;;;;5065132;28;20103;-83
2023/08/10 03:01:10;;;;;;;8.52;2.47;;;;;;;;;;5049216;28;20034;-83
2023/08/10 03:03:36;;;;;;;8.30;2.28;;;;;;;;;;5050936;28;20041;-83
2023/08/10 03:06:02;;;;;;;9.95;2.80;;;;;;;;;;5049365;28;20044;-84
2023/08/10 03:08:28;;;;;;;10.50;2.75;;;;;;;;;;5047837;28;20042;-84
2023/08/10 03:10:54;;;;;;;14.57;3.05;;;;;;;;;;5048987;28;20101;-84
2023/08/10 03:13:21;;;;;;;12.60;2.70;;;;;;;;;;5050441;28;20472;-83
2023/08/10 03:15:47;;;;;;;12.10;2.80;;;;;;;;;;5050009;28;20053;-83
2023/08/10 03:18:13;;;;;;;8.20;2.50;;;;;;;;;;5048285;28;20026;-83
2023/08/10 03:20:39;;;;;;;11.90;2.88;;;;;;;;;;5049273;28;20037;-83
2023/08/10 03:23:05;;;;;;;10.93;2.90;;;;;;;;;;5049350;28;20149;-83
2023/08/10 03:25:32;;;;;;;8.25;2.83;;;;;;;;;;5052839;28;20105;-84
2023/08/10 03:27:58;;;;;;;6.60;2.80;;;;;;;;;;5038919;28;20048;-83
2023/08/10 03:30:24;;;;;;;9.05;2.67;;;;;;;;;;5053050;28;20075;-83
2023/08/10 03:32:50;;;;;;;6.82;2.35;;;;;;;;;;5062951;28;20049;-83
2023/08/10 03:35:16;;;;;;;10.25;2.40;;;;;;;;;;5059683;28;20046;-83
2023/08/10 03:37:42;;;;;;;7.20;2.33;;;;;;;;;;5060122;28;20071;-84
2023/08/10 03:40:09;;;;;;;7.50;2.25;;;;;;;;;;5041452;28;20062;-84
2023/08/10 03:42:35;;;;;;;10.25;2.53;;;;;;;;;;5045242;28;20041;-83
2023/08/10 03:45:01;;;;;;;10.25;2.50;;;;;;;;;;5050571;28;20052;-84
2023/08/10 03:47:27;;;;;;;6.85;2.50;;;;;;;;;;5034190;28;20056;-84
2023/08/10 03:49:54;;;;;;;11.35;2.67;;;;;;;;;;5049592;28;20503;-82
2023/08/10 03:52:20;;;;;;;9.77;2.65;;;;;;;;;;5050037;28;20075;-82
2023/08/10 03:54:47;;;;;;;8.43;2.58;;;;;;;;;;5052750;28;20493;-83
2023/08/10 03:57:13;;;;;;;9.18;2.60;;;;;;;;;;5049163;28;20037;-84
2023/08/10 03:59:39;;;;;;;9.00;3.03;;;;;;;;;;5047518;28;20075;-84
2023/08/10 04:02:06;;;;;;;7.07;2.60;;;;;;;;;;5049193;28;20131;-84
2023/08/10 04:04:32;;;;;;;8.20;2.42;;;;;;;;;;5048979;28;20076;-86
2023/08/10 04:06:58;;;;;;;9.27;2.92;;;;;;;;;;5055650;28;20109;-84
2023/08/10 04:09:24;;;;;;;8.57;3.08;;;;;;;;;;5047794;28;20044;-85
2023/08/10 04:11:50;;;;;;;8.02;2.78;;;;;;;;;;5047359;28;20049;-86
2023/08/10 04:14:17;;;;;;;12.32;3.20;;;;;;;;;;5062705;28;20100;-83
2023/08/10 04:16:43;;;;;;;8.48;3.05;;;;;;;;;;5045759;28;20052;-83
2023/08/10 04:19:10;;;;;;;12.40;2.55;;;;;;;;;;5047962;28;20049;-82
2023/08/10 04:21:36;;;;;;;8.35;3.40;;;;;;;;;;5049882;28;20041;-84
2023/08/10 04:24:02;;;;;;;7.88;3.08;;;;;;;;;;5048881;28;20049;-83
2023/08/10 04:26:28;;;;;;;10.88;3.25;;;;;;;;;;5051485;28;20044;-83
2023/08/10 04:28:54;;;;;;;7.18;2.95;;;;;;;;;;5048788;28;20049;-84
2023/08/10 04:31:20;;;;;;;11.52;3.30;;;;;;;;;;5050404;28;20040;-84
2023/08/10 04:33:46;;;;;;;11.00;3.38;;;;;;;;;;5047453;28;20056;-83
2023/08/10 04:36:12;;;;;;;8.80;3.10;;;;;;;;;;5052322;28;20049;-83
2023/08/10 04:38:39;;;;;;;8.30;2.97;;;;;;;;;;5051694;28;20465;-85
2023/08/10 04:41:05;;;;;;;9.23;2.85;;;;;;;;;;5051583;28;20046;-84
2023/08/10 04:43:31;;;;;;;10.95;3.05;;;;;;;;;;5050122;28;20093;-84
2023/08/10 04:45:57;;;;;;;7.93;3.10;;;;;;;;;;5051892;28;20049;-83
2023/08/10 04:48:23;;;;;;;12.27;3.58;;;;;;;;;;5049478;28;20072;-83
2023/08/10 04:50:49;;;;;;;8.23;2.75;;;;;;;;;;5050622;28;20045;-83
2023/08/10 04:53:15;;;;;;;9.43;3.00;;;;;;;;;;5049684;28;20042;-83
2023/08/10 04:55:41;;;;;;;8.73;2.78;;;;;;;;;;5049453;28;20056;-84
2023/08/10 04:58:07;;;;;;;8.93;2.90;;;;;;;;;;5052481;28;20057;-84
2023/08/10 05:00:33;;;;;;;8.35;2.70;;;;;;;;;;5050688;28;20049;-83
2023/08/10 05:02:59;;;;;;;12.77;3.50;;;;;;;;;;5048978;28;20045;-83
2023/08/10 05:05:25;;;;;;;10.30;2.97;;;;;;;;;;5033132;28;20056;-84
2023/08/10 05:07:52;;;;;;;9.70;3.00;;;;;;;;;;5037524;28;20045;-85
2023/08/10 05:10:19;;;;;;;9.05;2.78;;;;;;;;;;5041708;28;20041;-85
2023/08/10 05:12:45;;;;;;;9.13;2.70;;;;;;;;;;5050260;28;20041;-84
2023/08/10 05:15:11;;;;;;;10.05;2.90;;;;;;;;;;5051813;28;20072;-83
2023/08/10 05:17:38;;;;;;;9.90;2.90;;;;;;;;;;5048745;28;20124;-86
2023/08/10 05:20:10;;;;;;;7.55;2.70;;;;;;;;;;5046609;28;20045;-84
2023/08/10 05:22:36;;;;;;;8.13;2.40;;;;;;;;;;5048204;28;20057;-83
2023/08/10 05:25:02;;;;;;;8.75;2.67;;;;;;;;;;5050403;28;20047;-84
2023/08/10 05:27:28;;;;;;;8.95;2.80;;;;;;;;;;5037035;28;20154;-84
2023/08/10 05:29:54;;;;;;;9.52;2.45;;;;;;;;;;5037133;28;20050;-84
2023/08/10 05:32:20;;;;;;;8.65;2.80;;;;;;;;;;5051224;28;20053;-83
2023/08/10 05:34:48;;;;;;;7.72;2.33;;;;;;;;;;5050691;28;20049;-85
2023/08/10 05:37:14;;;;;;;7.68;2.40;;;;;;;;;;5051424;28;20056;-84
2023/08/10 05:39:40;;;;;;;8.70;2.60;;;;;;;;;;5046590;28;20046;-86
2023/08/10 05:42:06;;;;;;;8.25;2.35;;;;;;;;;;5038934;28;20100;-87
2023/08/10 05:44:32;;;;;;;9.10;2.38;;;;;;;;;;5037863;28;20407;-86
2023/08/10 05:46:58;;;;;;;10.75;2.40;;;;;;;;;;5041160;28;20041;-86
2023/08/10 05:49:24;;;;;;;6.43;2.20;;;;;;;;;;5041236;28;20037;-86
2023/08/10 05:51:50;;;;;;;9.00;2.30;;;;;;;;;;5040667;28;20057;-85
2023/08/10 05:54:16;;;;;;;10.02;2.20;;;;;;;;;;5037093;28;20523;-87
2023/08/10 05:56:43;;;;;;;9.30;2.15;;;;;;;;;;5020680;28;20400;-86
2023/08/10 05:59:09;;;;;;;8.73;2.47;;;;;;;;;;5047019;28;20053;-86
2023/08/10 06:01:35;;;;;;;7.53;2.40;;;;;;;;;;5061202;28;20424;-86
2023/08/10 06:04:02;;;;;;;8.18;2.33;;;;;;;;;;5062369;28;20124;-86
2023/08/10 06:06:29;;;;;;;7.35;2.00;;;;;;;;;;5063918;28;20049;-86
2023/08/10 06:08:55;;;;;;;6.50;1.90;;;;;;;;;;5045258;28;20047;-86
2023/08/10 06:11:21;;;;;;;10.40;3.03;;;;;;;;;;5063198;28;20132;-86
2023/08/10 06:13:47;;;;;;;6.88;2.00;;;;;;;;;;5058884;28;20421;-87
2023/08/10 06:16:13;;;;;;;9.45;1.80;;;;;;;;;;5064854;28;20040;-86
2023/08/10 06:18:40;;;;;;;10.02;1.95;;;;;;;;;;5061199;28;20114;-87
2023/08/10 06:21:06;;;;;;;8.48;1.90;;;;;;;;;;5060361;28;20045;-87
2023/08/10 06:23:33;;;;;;;6.95;1.85;;;;;;;;;;5060078;28;20132;-85
2023/08/10 06:26:05;;;;;;;8.68;2.03;;;;;;;;;;5064095;28;20048;-86
2023/08/10 06:28:32;;;;;;;9.00;2.20;;;;;;;;;;5047848;28;20106;-84
2023/08/10 06:30:58;;;;;;;8.20;1.90;;;;;;;;;;5029748;28;20045;-84
2023/08/10 06:33:24;;;;;;;7.40;1.73;;;;;;;;;;5055568;28;20071;-86
2023/08/10 06:35:51;;;;;;;9.00;2.00;;;;;;;;;;5063586;28;20128;-85
2023/08/10 06:38:18;;;;;;;6.50;1.67;;;;;;;;;;5063392;28;20108;-85
2023/08/10 06:40:44;;;;;;;9.02;1.95;;;;;;;;;;5048015;28;20074;-84
2023/08/10 06:43:10;;;;;;;7.07;1.48;;;;;;;;;;5066162;28;20144;-85
2023/08/10 06:45:36;;;;;;;9.05;1.88;;;;;;;;;;5060270;28;20045;-84
2023/08/10 06:48:02;;;;;;;7.75;1.63;;;;;;;;;;5062536;28;20045;-84
2023/08/10 06:50:28;;;;;;;7.95;1.58;;;;;;;;;;5044869;28;20048;-84
2023/08/10 06:52:54;;;;;;;7.95;1.67;;;;;;;;;;5063762;28;20041;-84
2023/08/10 06:55:20;;;;;;;8.18;1.90;;;;;;;;;;5044546;28;20183;-85
2023/08/10 06:57:46;;;;;;;9.00;1.38;;;;;;;;;;5063208;28;20419;-84
2023/08/10 07:00:14;;;;;;;7.85;1.40;;;;;;;;;;5062464;28;20052;-85
2023/08/10 07:02:41;;;;;;;9.85;2.00;;;;;;;;;;5045232;28;20045;-85
2023/08/10 07:05:07;;;;;;;10.27;1.70;;;;;;;;;;5038735;28;20045;-85
2023/08/10 07:07:33;;;;;;;9.05;1.55;;;;;;;;;;5068261;28;20491;-85
2023/08/10 07:09:59;;;;;;;6.18;1.70;;;;;;;;;;5063373;28;20121;-84
2023/08/10 07:12:25;;;;;;;6.28;1.30;;;;;;;;;;5064742;28;20049;-85
2023/08/10 07:14:51;;;;;;;6.88;1.35;;;;;;;;;;5069174;28;20057;-84
2023/08/10 07:17:17;;;;;;;8.60;1.80;;;;;;;;;;5072171;28;20080;-84
2023/08/10 07:19:43;;;;;;;7.20;1.60;;;;;;;;;;5035651;28;20043;-84
2023/08/10 07:22:09;;;;;;;6.57;1.38;;;;;;;;;;5069146;28;20044;-84
2023/08/10 07:24:36;;;;;;;8.32;1.65;;;;;;;;;;5070601;28;20049;-85
2023/08/10 07:27:02;;;;;;;7.78;1.60;;;;;;;;;;5070584;28;20052;-85
2023/08/10 07:29:28;;;;;;;9.80;1.83;;;;;;;;;;5066413;28;20044;-84
2023/08/10 07:32:01;;;;;;;9.35;1.75;;;;;;;;;;5066575;28;20128;-86
2023/08/10 07:34:27;;;;;;;7.95;1.88;;;;;;;;;;5046470;28;20056;-85
2023/08/10 07:36:54;;;;;;;7.70;1.50;;;;;;;;;;5042255;28;20045;-85
2023/08/10 07:39:20;;;;;;;9.88;1.60;;;;;;;;;;5061718;28;20037;-86
2023/08/10 07:41:46;;;;;;;6.20;1.42;;;;;;;;;;5046522;28;20190;-86
2023/08/10 07:44:12;;;;;;;8.35;1.40;;;;;;;;;;5061534;28;20097;-85
2023/08/10 07:46:39;;;;;;;7.30;1.60;;;;;;;;;;5060394;28;20049;-86
2023/08/10 07:49:05;;;;;;;5.57;1.40;;;;;;;;;;5062729;28;20104;-83
2023/08/10 07:51:31;;;;;;;7.10;1.58;;;;;;;;;;5062757;28;20041;-84
2023/08/10 07:53:57;;;;;;;5.15;1.15;;;;;;;;;;5069088;28;20044;-83
2023/08/10 07:56:23;;;;;;;8.00;1.77;;;;;;;;;;5050816;28;20045;-83
2023/08/10 07:58:49;;;;;;;8.50;1.60;;;;;;;;;;5068479;28;20114;-84
2023/08/10 08:01:16;;;;;;;7.32;1.50;;;;;;;;;;5050267;28;20052;-85
2023/08/10 08:03:42;;;;;;;6.55;1.50;;;;;;;;;;5067161;28;20040;-83
2023/08/10 08:06:08;;;;;;;5.65;1.20;;;;;;;;;;5049814;28;20077;-82
2023/08/10 08:08:34;;;;;;;8.18;1.20;;;;;;;;;;5047841;28;20056;-84
2023/08/10 08:11:00;;;;;;;7.03;1.10;;;;;;;;;;5064521;28;20037;-84
2023/08/10 08:13:26;;;;;;;6.38;1.10;;;;;;;;;;5065983;28;20033;-84
2023/08/10 08:15:52;;;;;;;7.60;1.25;;;;;;;;;;5057201;28;20045;-84
2023/08/10 08:18:38;;;;;;;6.85;1.33;;;;;;;;;;5067500;28;20052;-85
2023/08/10 08:21:04;;;;;;;5.53;1.23;;;;;;;;;;5048426;28;20037;-84
2023/08/10 08:23:30;;;;;;;5.93;1.10;;;;;;;;;;5067154;28;20045;-82
2023/08/10 08:25:56;;;;;;;7.13;1.20;;;;;;;;;;5061805;28;20502;-84
2023/08/10 08:28:23;;;;;;;5.03;1.13;;;;;;;;;;5068146;28;20053;-84
2023/08/10 08:30:52;;;;;;;6.40;1.33;;;;;;;;;;5065637;28;20064;-84
2023/08/10 08:33:18;;;;;;;5.28;1.10;;;;;;;;;;5064077;28;20083;-83
2023/08/10 08:35:45;;;;;;;4.93;1.30;;;;;;;;;;5060713;28;20049;-83
2023/08/10 08:38:13;;;;;;;6.85;1.42;;;;;;;;;;5044180;28;20068;-84
2023/08/10 08:40:39;;;;;;;5.97;1.10;;;;;;;;;;5062163;28;20056;-85
2023/08/10 08:43:05;;;;;;;5.68;1.30;;;;;;;;;;5046679;28;20100;-83
2023/08/10 08:45:34;;;;;;;7.47;1.40;;;;;;;;;;5062782;28;20048;-83
2023/08/10 08:48:02;;;;;;;6.22;1.30;;;;;;;;;;5058319;28;20122;-83
2023/08/10 08:50:28;;;;;;;6.53;1.05;;;;;;;;;;5064326;28;20143;-83
2023/08/10 08:52:55;;;;;;;6.93;1.10;;;;;;;;;;5066087;28;20045;-83
2023/08/10 08:55:21;;;;;;;8.82;1.27;;;;;;;;;;5066700;28;20045;-84
2023/08/10 08:57:49;;;;;;;5.00;0.88;;;;;;;;;;5064114;28;20047;-85
2023/08/10 09:00:15;;;;;;;4.28;1.17;;;;;;;;;;5056257;28;20068;-84
2023/08/10 09:02:41;;;;;;;5.47;1.20;;;;;;;;;;5064397;28;20120;-83
2023/08/10 09:05:08;;;;;;;7.10;1.55;;;;;;;;;;5043198;28;20105;-84
2023/08/10 09:07:34;;;;;;;5.93;1.08;;;;;;;;;;5065931;28;20041;-85
2023/08/10 09:10:00;;;;;;;5.43;1.20;;;;;;;;;;5052807;28;20072;-83
2023/08/10 09:12:30;;;;;;;6.80;1.00;;;;;;;;;;5070452;28;20072;-84
2023/08/10 09:15:03;;;;;;;5.40;1.02;;;;;;;;;;5070760;28;20036;-82
2023/08/10 09:17:30;;;;;;;7.55;1.00;;;;;;;;;;5070585;28;20101;-83
2023/08/10 09:19:56;;;;;;;6.40;1.10;;;;;;;;;;5067975;28;20044;-83
2023/08/10 09:22:32;;;;;;;6.40;1.00;;;;;;;;;;5061125;28;20092;-83
2023/08/10 09:24:58;;;;;;;6.90;1.08;;;;;;;;;;5066567;28;20052;-84
2023/08/10 09:27:27;;;;;;;5.80;1.30;;;;;;;;;;5048841;28;20056;-85
2023/08/10 09:30:00;;;;;;;6.95;1.30;;;;;;;;;;5064962;28;20044;-83
2023/08/10 09:32:26;;;;;;;7.60;1.20;;;;;;;;;;5067614;28;20041;-83
2023/08/10 09:34:53;;;;;;;7.07;1.10;;;;;;;;;;5067980;28;20130;-83
2023/08/10 09:37:23;;;;;;;6.93;1.40;;;;;;;;;;5067228;28;20510;-83
2023/08/10 09:39:53;;;;;;;6.30;1.05;;;;;;;;;;5050532;28;20052;-84
2023/08/10 09:42:19;;;;;;;5.95;1.00;;;;;;;;;;5068796;28;20072;-84
2023/08/10 09:44:46;;;;;;;3.75;0.88;;;;;;;;;;5069568;28;20475;-83
2023/08/10 09:47:14;;;;;;;5.50;1.20;;;;;;;;;;5068551;28;20130;-83
2023/08/10 09:49:45;;;;;;;7.75;1.27;;;;;;;;;;5070776;28;20049;-82
2023/08/10 09:52:11;;;;;;;6.32;1.20;;;;;;;;;;5053829;28;20041;-82
2023/08/10 09:54:39;;;;;;;5.90;1.20;;;;;;;;;;5069591;28;20055;-83
2023/08/10 09:57:05;;;;;;;4.53;0.93;;;;;;;;;;5069866;28;20053;-84
2023/08/10 09:59:32;;;;;;;5.80;1.50;;;;;;;;;;5071215;28;20067;-83
2023/08/10 10:01:58;;;;;;;6.85;1.30;;;;;;;;;;5071401;28;20041;-84
2023/08/10 10:04:25;;;;;;;8.88;1.08;;;;;;;;;;5069356;28;20037;-83
2023/08/10 10:06:53;;;;;;;7.30;1.10;;;;;;;;;;5070492;28;20044;-83
2023/08/10 10:09:20;;;;;;;8.90;1.65;;;;;;;;;;5070487;28;20084;-84
2023/08/10 10:11:46;;;;;;;6.57;1.30;;;;;;;;;;5057131;28;20046;-83
2023/08/10 10:14:12;;;;;;;7.65;1.35;;;;;;;;;;5059667;28;20053;-83
2023/08/10 10:16:39;;;;;;;7.32;1.40;;;;;;;;;;5067538;28;20068;-83
2023/08/10 10:19:05;;;;;;;6.88;1.30;;;;;;;;;;5067552;28;20041;-84
2023/08/10 10:21:31;;;;;;;4.35;1.48;;;;;;;;;;5069091;28;20041;-83
2023/08/10 10:23:59;;;;;;;6.03;1.20;;;;;;;;;;5068278;28;20115;-83
2023/08/10 10:26:25;;;;;;;5.05;1.30;;;;;;;;;;5070394;28;20029;-83
2023/08/10 10:29:09;;;;;;;6.85;1.52;;;;;;;;;;5067087;28;20105;-83
2023/08/10 10:31:40;;;;;;;6.63;1.55;;;;;;;;;;5067950;28;20049;-82
2023/08/10 10:34:10;;;;;;;7.40;1.40;;;;;;;;;;5067029;28;20090;-83
2023/08/10 10:36:38;;;;;;;6.50;1.40;;;;;;;;;;5052407;28;20060;-83
2023/08/10 10:39:08;;;;;;;6.68;1.20;;;;;;;;;;5025071;28;20428;-84
2023/08/10 10:41:35;;;;;;;5.55;1.20;;;;;;;;;;5059211;28;20068;-84
2023/08/10 10:44:04;;;;;;;4.07;1.20;;;;;;;;;;5043716;28;20049;-83
2023/08/10 10:46:33;;;;;;;9.20;1.17;;;;;;;;;;5058748;28;20105;-84
2023/08/10 10:49:11;;;;;;;5.85;1.20;;;;;;;;;;5058802;28;20037;-84
2023/08/10 10:52:04;;;;;;;7.00;1.40;;;;;;;;;;5067738;28;20134;-85
2023/08/10 10:54:35;;;;;;;5.32;1.05;;;;;;;;;;5053699;28;20057;-84
2023/08/10 10:57:02;;;;;;;7.88;1.13;;;;;;;;;;5065479;28;20062;-84
2023/08/10 10:59:28;;;;;;;6.53;1.25;;;;;;;;;;5067044;28;20053;-83
2023/08/10 11:01:54;;;;;;;6.90;1.10;;;;;;;;;;5052778;28;20053;-83
2023/08/10 11:04:22;;;;;;;5.68;1.20;;;;;;;;;;5056072;28;20041;-83
2023/08/10 11:06:48;;;;;;;5.22;1.00;;;;;;;;;;5066859;28;20060;-83
2023/08/10 11:09:14;;;;;;;4.47;1.00;;;;;;;;;;5050671;28;20045;-83
2023/08/10 11:11:41;;;;;;;4.88;1.15;;;;;;;;;;5070400;28;20126;-83
2023/08/10 11:14:07;;;;;;;4.68;0.95;;;;;;;;;;5068690;28;20053;-83
2023/08/10 11:16:42;;;;;;;7.22;1.20;;;;;;;;;;5063272;28;20072;-84
2023/08/10 11:19:08;;;;;;;5.20;1.17;;;;;;;;;;5058129;28;20045;-83
2023/08/10 11:21:37;;;;;;;8.45;1.25;;;;;;;;;;5065957;28;20128;-84
2023/08/10 11:24:06;;;;;;;7.55;1.20;;;;;;;;;;5040004;28;20053;-83
2023/08/10 11:26:33;;;;;;;5.78;0.90;;;;;;;;;;5050003;28;20042;-83
2023/08/10 11:28:59;;;;;;;4.50;1.20;;;;;;;;;;5067285;28;20048;-83
2023/08/10 11:31:25;;;;;;;5.47;1.20;;;;;;;;;;5068567;28;20090;-84
2023/08/10 11:33:51;;;;;;;6.68;1.45;;;;;;;;;;5068107;28;20072;-83
2023/08/10 11:36:17;;;;;;;5.65;1.27;;;;;;;;;;5058116;28;20049;-84
2023/08/10 11:38:46;;;;;;;5.88;1.20;;;;;;;;;;5068874;28;20048;-84
2023/08/10 11:41:12;;;;;;;5.60;1.10;;;;;;;;;;5057266;28;20107;-83
2023/08/10 11:43:40;;;;;;;6.70;1.20;;;;;;;;;;5030715;28;20105;-82
2023/08/10 11:46:06;;;;;;;5.00;1.40;;;;;;;;;;5049754;28;20519;-83
2023/08/10 11:48:32;;;;;;;6.35;1.30;;;;;;;;;;5072118;28;20049;-83
2023/08/10 11:50:59;;;;;;;6.50;1.58;;;;;;;;;;5071940;28;20047;-83
2023/08/10 11:53:35;;;;;;;6.13;1.45;;;;;;;;;;5036422;28;20041;-83
2023/08/10 11:56:01;;;;;;;5.57;1.20;;;;;;;;;;5050801;28;20056;-83
2023/08/10 11:58:32;;;;;;;6.57;1.27;;;;;;;;;;5061071;28;20071;-83
2023/08/10 12:01:02;;;;;;;6.68;1.30;;;;;;;;;;5065490;28;20041;-83
2023/08/10 12:03:29;;;;;;;7.50;1.57;;;;;;;;;;5068909;28;20041;-83
2023/08/10 12:05:56;;;;;;;8.27;1.58;;;;;;;;;;5071228;28;20045;-84
2023/08/10 12:08:26;;;;;;;6.25;1.55;;;;;;;;;;5053763;28;20049;-84
2023/08/10 12:10:59;;;;;;;6.22;1.50;;;;;;;;;;5070752;28;20108;-83
2023/08/10 12:13:25;;;;;;;4.45;1.33;;;;;;;;;;5070531;28;20045;-85
2023/08/10 12:15:52;;;;;;;6.13;1.30;;;;;;;;;;5054384;28;20044;-83
2023/08/10 12:18:19;;;;;;;6.15;1.60;;;;;;;;;;5070725;28;20041;-84
2023/08/10 12:20:46;;;;;;;8.35;1.50;;;;;;;;;;5066780;28;20491;-84
2023/08/10 12:23:12;;;;;;;6.95;1.98;;;;;;;;;;5070777;28;20037;-85
2023/08/10 12:25:38;;;;;;;7.57;1.75;;;;;;;;;;5071743;28;20111;-84
2023/08/10 12:28:08;;;;;;;6.18;1.50;;;;;;;;;;5071545;28;20490;-83
2023/08/10 12:30:34;;;;;;;5.82;1.55;;;;;;;;;;5069832;28;20049;-84
2023/08/10 12:33:01;;;;;;;6.82;1.77;;;;;;;;;;5049374;28;20045;-84
2023/08/10 12:35:27;;;;;;;6.53;1.60;;;;;;;;;;5070984;28;20135;-84
2023/08/10 12:37:54;;;;;;;6.03;1.70;;;;;;;;;;5048386;28;20049;-83
2023/08/10 12:40:20;;;;;;;5.57;1.63;;;;;;;;;;5065266;28;20060;-82
2023/08/10 12:42:46;;;;;;;6.45;1.75;;;;;;;;;;5041726;28;20096;-84
2023/08/10 12:45:13;;;;;;;10.60;2.20;;;;;;;;;;5070786;28;20095;-84
2023/08/10 12:47:39;;;;;;;7.10;2.13;;;;;;;;;;5053216;28;20487;-83
2023/08/10 12:50:09;;;;;;;6.85;1.95;;;;;;;;;;5063592;28;20037;-84
2023/08/10 12:52:36;;;;;;;5.37;1.97;;;;;;;;;;5048728;28;20075;-84
2023/08/10 12:55:02;;;;;;;5.82;1.77;;;;;;;;;;5052591;28;20055;-84
2023/08/10 12:57:29;;;;;;;8.73;1.85;;;;;;;;;;5069142;28;20049;-84
2023/08/10 12:59:55;;;;;;;10.27;2.17;;;;;;;;;;5052482;28;20127;-83
2023/08/10 13:02:21;;;;;;;8.52;2.30;;;;;;;;;;5070621;28;20049;-84
2023/08/10 13:04:47;;;;;;;6.45;2.00;;;;;;;;;;5069643;28;20080;-85
2023/08/10 13:07:13;;;;;;;7.72;1.77;;;;;;;;;;5069699;28;20090;-84
2023/08/10 13:09:39;;;;;;;7.28;1.73;;;;;;;;;;5070641;28;20044;-84
2023/08/10 13:12:05;;;;;;;6.63;1.90;;;;;;;;;;5067848;28;20041;-83
2023/08/10 13:14:31;;;;;;;7.47;2.10;;;;;;;;;;5070810;28;20041;-84
2023/08/10 13:16:57;;;;;;;9.25;2.25;;;;;;;;;;5070313;28;20104;-86
2023/08/10 13:19:23;;;;;;;8.98;1.90;;;;;;;;;;5051145;28;20131;-84
2023/08/10 13:21:50;;;;;;;7.65;1.95;;;;;;;;;;5071964;28;20124;-84
2023/08/10 13:24:16;;;;;;;7.03;2.35;;;;;;;;;;5061911;28;20053;-84
2023/08/10 13:26:42;;;;;;;7.95;2.38;;;;;;;;;;5064101;28;20049;-85
2023/08/10 13:29:08;;;;;;;8.95;1.92;;;;;;;;;;5064311;28;20075;-84
2023/08/10 13:31:35;;;;;;;11.45;1.92;;;;;;;;;;5069148;28;20085;-84
2023/08/10 13:34:05;;;;;;;8.48;2.50;;;;;;;;;;5069605;28;20045;-85
2023/08/10 13:36:31;;;;;;;11.18;2.50;;;;;;;;;;5069349;28;20403;-83
2023/08/10 13:38:58;;;;;;;10.40;2.13;;;;;;;;;;5066631;28;20368;-83
2023/08/10 13:41:24;;;;;;;6.35;2.30;;;;;;;;;;5060632;28;20097;-82
2023/08/10 13:43:51;;;;;;;9.23;2.35;;;;;;;;;;5066844;28;20047;-83
2023/08/10 13:46:17;;;;;;;9.13;2.30;;;;;;;;;;5035736;28;20045;-83
2023/08/10 13:48:43;;;;;;;9.80;2.80;;;;;;;;;;5070187;28;20053;-84
2023/08/10 13:51:09;;;;;;;5.25;2.20;;;;;;;;;;5044716;28;20053;-83
2023/08/10 13:53:35;;;;;;;9.73;2.40;;;;;;;;;;5061921;28;20391;-84
2023/08/10 13:56:02;;;;;;;9.63;2.42;;;;;;;;;;5049149;28;20037;-83
2023/08/10 13:58:28;;;;;;;9.85;2.65;;;;;;;;;;5064259;28;20053;-85
2023/08/10 14:00:55;;;;;;;6.85;1.92;;;;;;;;;;5067563;28;20045;-86
2023/08/10 14:03:21;;;;;;;10.50;1.85;;;;;;;;;;5018516;28;20072;-84
2023/08/10 14:05:47;;;;;;;9.23;2.30;;;;;;;;;;5049899;28;20068;-83
2023/08/10 14:08:14;;;;;;;9.38;2.22;;;;;;;;;;5042251;28;20045;-84
2023/08/10 14:10:40;;;;;;;5.95;2.50;;;;;;;;;;5067754;28;20073;-84
2023/08/10 14:13:06;;;;;;;7.43;2.13;;;;;;;;;;5070136;28;20100;-84
2023/08/10 14:15:32;;;;;;;7.72;2.80;;;;;;;;;;5064730;28;20223;-85
2023/08/10 14:17:58;;;;;;;7.90;2.40;;;;;;;;;;5065414;28;20147;-83
2023/08/10 14:20:24;;;;;;;9.10;3.17;;;;;;;;;;5066152;28;20041;-82
2023/08/10 14:22:50;;;;;;;9.48;2.88;;;;;;;;;;5055670;28;20047;-83
2023/08/10 14:25:17;;;;;;;7.68;3.13;;;;;;;;;;5069141;28;20043;-81
2023/08/10 14:27:43;;;;;;;9.63;2.50;;;;;;;;;;5054661;28;20381;-82
2023/08/10 14:30:09;;;;;;;8.07;2.13;;;;;;;;;;5061858;28;20093;-82
2023/08/10 14:32:35;;;;;;;13.45;3.58;;;;;;;;;;5054254;28;20148;-83
2023/08/10 14:35:01;;;;;;;6.95;2.60;;;;;;;;;;5070951;28;20041;-82
2023/08/10 14:37:27;;;;;;;8.80;2.67;;;;;;;;;;5070024;28;20064;-82
2023/08/10 14:39:54;;;;;;;9.07;2.50;;;;;;;;;;5069878;28;20048;-82